| time (UTC) | temp C | wind direction | speed KPH | gust KPH | rain 1hr cm | rain 24hr cm | rain mn cm | humidity % | barometer mb |
| 20260507221431 | 13 | 307 | 8.0 | 12.9 | 0.00 | 0.00 | 0.00 | 39 | 1003.9 |
| 20260507220927 | 13 | 330 | 9.7 | 14.5 | 0.00 | 0.00 | 0.00 | 38 | 1003.6 |
| 20260507220425 | 13 | 279 | 11.3 | 17.7 | 0.00 | 0.00 | 0.00 | 39 | 1003.6 |
| 20260507215921 | 14 | 180 | 9.7 | 12.9 | 0.00 | 0.00 | 0.00 | 38 | 1003.8 |
| 20260507215418 | 15 | 220 | 11.3 | 12.9 | 0.00 | 0.00 | 0.00 | 38 | 1003.6 |
| 20260507214915 | 15 | 258 | 4.8 | 9.7 | 0.00 | 0.00 | 0.00 | 38 | 1003.6 |
| 20260507214413 | 15 | 246 | 6.4 | 9.7 | 0.00 | 0.00 | 0.00 | 38 | 1003.5 |
| 20260507213908 | 15 | 238 | 8.0 | 16.1 | 0.00 | 0.00 | 0.00 | 40 | 1003.8 |
| 20260507213404 | 13 | 329 | 8.0 | 11.3 | 0.00 | 0.00 | 0.00 | 40 | 1003.8 |
| 20260507212902 | 14 | 350 | 11.3 | 14.5 | 0.00 | 0.00 | 0.00 | 38 | 1003.7 |
| 20260507212357 | 14 | 329 | 11.3 | 16.1 | 0.00 | 0.00 | 0.00 | 38 | 1003.7 |
| 20260507211854 | 15 | 215 | 8.0 | 12.9 | 0.00 | 0.00 | 0.00 | 39 | 1003.9 |
| 20260507211351 | 14 | 319 | 8.0 | 12.9 | 0.00 | 0.00 | 0.00 | 39 | 1003.6 |
| 20260507210848 | 13 | 241 | 9.7 | 14.5 | 0.00 | 0.00 | 0.00 | 39 | 1003.6 |
| 20260507210345 | 13 | 312 | 17.7 | 22.5 | 0.00 | 0.00 | 0.00 | 39 | 1003.6 |
| 20260507205842 | 14 | 216 | 9.7 | 12.9 | 0.00 | 0.00 | 0.00 | 41 | 1003.7 |
| 20260507205338 | 15 | 317 | 6.4 | 11.3 | 0.00 | 0.00 | 0.00 | 39 | 1003.5 |
| 20260507204835 | 15 | 263 | 11.3 | 14.5 | 0.00 | 0.00 | 0.00 | 38 | 1003.6 |
| 20260507204332 | 15 | 232 | 8.0 | 12.9 | 0.00 | 0.00 | 0.00 | 41 | 1003.4 |
| 20260507203830 | 15 | 212 | 9.7 | 14.5 | 0.00 | 0.00 | 0.00 | 39 | 1003.4 |
| 20260507203327 | 15 | 263 | 4.8 | 11.3 | 0.00 | 0.00 | 0.00 | 40 | 1003.5 |
| 20260507202823 | 13 | 239 | 1.6 | 8.0 | 0.00 | 0.00 | 0.00 | 43 | 1003.4 |
| 20260507202320 | 13 | 27 | 6.4 | 11.3 | 0.00 | 0.00 | 0.00 | 44 | 1003.6 |
| 20260507201815 | 13 | 281 | 12.9 | 22.5 | 0.00 | 0.00 | 0.00 | 42 | 1003.6 |
| 20260507201311 | 14 | 277 | 11.3 | 16.1 | 0.00 | 0.00 | 0.00 | 40 | 1003.6 |
| 20260507200808 | 13 | 248 | 8.0 | 8.0 | 0.00 | 0.00 | 0.00 | 42 | 1003.5 |
| 20260507200303 | 13 | 289 | 6.4 | 17.7 | 0.00 | 0.00 | 0.00 | 45 | 1003.6 |
| 20260507195800 | 12 | 228 | 14.5 | 17.7 | 0.00 | 0.00 | 0.00 | 44 | 1003.6 |
| 20260507195257 | 13 | 326 | 11.3 | 17.7 | 0.00 | 0.00 | 0.00 | 44 | 1003.5 |
| 20260507194755 | 13 | 303 | 12.9 | 16.1 | 0.00 | 0.00 | 0.00 | 43 | 1003.9 |
| 20260507194250 | 15 | 13 | 11.3 | 22.5 | 0.00 | 0.00 | 0.00 | 42 | 1003.7 |
| 20260507193747 | 15 | 178 | 4.8 | 11.3 | 0.00 | 0.00 | 0.00 | 42 | 1003.6 |
| 20260507193244 | 13 | 226 | 6.4 | 9.7 | 0.00 | 0.00 | 0.00 | 45 | 1003.7 |
| 20260507192740 | 13 | 304 | 8.0 | 17.7 | 0.00 | 0.00 | 0.00 | 44 | 1003.8 |
| 20260507192237 | 15 | 249 | 14.5 | 14.5 | 0.00 | 0.00 | 0.00 | 41 | 1003.9 |
| 20260507191733 | 13 | 212 | 8.0 | 16.1 | 0.00 | 0.00 | 0.00 | 45 | 1004.0 |
| 20260507191230 | 13 | 253 | 11.3 | 20.9 | 0.00 | 0.00 | 0.00 | 43 | 1003.9 |
| 20260507190727 | 14 | 5 | 11.3 | 17.7 | 0.00 | 0.00 | 0.00 | 43 | 1004.1 |
| 20260507190225 | 14 | 245 | 8.0 | 11.3 | 0.00 | 0.00 | 0.00 | 44 | 1004.0 |
| 20260507185724 | 13 | 304 | 11.3 | 16.1 | 0.00 | 0.00 | 0.00 | 42 | 1004.0 |
| 20260507185220 | 14 | 231 | 6.4 | 11.3 | 0.00 | 0.00 | 0.00 | 44 | 1004.2 |
| 20260507184718 | 15 | 358 | 11.3 | 16.1 | 0.00 | 0.00 | 0.00 | 41 | 1004.1 |
| 20260507184215 | 15 | 274 | 6.4 | 17.7 | 0.00 | 0.00 | 0.00 | 45 | 1003.9 |
| 20260507183712 | 13 | 306 | 8.0 | 14.5 | 0.00 | 0.00 | 0.00 | 44 | 1004.1 |
| 20260507183208 | 13 | 236 | 4.8 | 11.3 | 0.00 | 0.00 | 0.00 | 48 | 1004.2 |
| 20260507182705 | 13 | 191 | 4.8 | 16.1 | 0.00 | 0.00 | 0.00 | 47 | 1004.3 |
| 20260507182155 | 13 | 282 | 11.3 | 24.1 | 0.00 | 0.00 | 0.00 | 46 | 1004.5 |
| 20260507181652 | 14 | 312 | 12.9 | 14.5 | 0.00 | 0.00 | 0.00 | 45 | 1004.2 |
| 20260507181149 | 14 | 300 | 14.5 | 20.9 | 0.00 | 0.00 | 0.00 | 47 | 1004.3 |
| 20260507180645 | 13 | 283 | 11.3 | 17.7 | 0.00 | 0.00 | 0.00 | 46 | 1004.3 |
| 20260507180142 | 13 | 328 | 9.7 | 12.9 | 0.00 | 0.00 | 0.00 | 45 | 1004.5 |
| 20260507175638 | 14 | 313 | 12.9 | 16.1 | 0.00 | 0.00 | 0.00 | 46 | 1004.2 |
| 20260507175135 | 13 | 317 | 8.0 | 14.5 | 0.00 | 0.00 | 0.00 | 49 | 1004.3 |
| 20260507174632 | 14 | 322 | 14.5 | 17.7 | 0.00 | 0.00 | 0.00 | 43 | 1004.4 |
| 20260507174131 | 13 | 295 | 9.7 | 16.1 | 0.00 | 0.00 | 0.00 | 45 | 1004.3 |
| 20260507173627 | 13 | 263 | 12.9 | 24.1 | 0.00 | 0.00 | 0.00 | 45 | 1004.1 |
| 20260507173124 | 13 | 304 | 11.3 | 20.9 | 0.00 | 0.00 | 0.00 | 41 | 1004.3 |
| 20260507172620 | 13 | 324 | 9.7 | 20.9 | 0.00 | 0.00 | 0.00 | 45 | 1004.5 |
| 20260507172118 | 13 | 338 | 16.1 | 17.7 | 0.00 | 0.00 | 0.00 | 46 | 1004.5 |
| 20260507171613 | 13 | 309 | 9.7 | 17.7 | 0.00 | 0.00 | 0.00 | 51 | 1004.5 |
| 20260507171110 | 13 | 264 | 12.9 | 22.5 | 0.00 | 0.00 | 0.00 | 51 | 1004.6 |
| 20260507170607 | 12 | 329 | 8.0 | 14.5 | 0.00 | 0.00 | 0.00 | 52 | 1004.7 |
| 20260507170104 | 13 | 346 | 17.7 | 20.9 | 0.00 | 0.00 | 0.00 | 54 | 1004.5 |
| 20260507165559 | 13 | 252 | 9.7 | 12.9 | 0.00 | 0.00 | 0.00 | 57 | 1004.6 |
| 20260507165056 | 12 | 244 | 4.8 | 9.7 | 0.00 | 0.00 | 0.00 | 59 | 1004.7 |
| 20260507164552 | 12 | 347 | 9.7 | 12.9 | 0.00 | 0.00 | 0.00 | 63 | 1004.7 |
| 20260507164049 | 12 | 334 | 11.3 | 20.9 | 0.00 | 0.00 | 0.00 | 65 | 1005.2 |
| 20260507163547 | 12 | 285 | 11.3 | 14.5 | 0.00 | 0.00 | 0.00 | 64 | 1005.0 |
| 20260507163044 | 12 | 287 | 19.3 | 27.4 | 0.00 | 0.00 | 0.00 | 64 | 1005.0 |
| 20260507162539 | 11 | 289 | 11.3 | 14.5 | 0.00 | 0.00 | 0.00 | 68 | 1005.0 |
| 20260507162036 | 12 | 171 | 8.0 | 17.7 | 0.00 | 0.00 | 0.00 | 69 | 1005.2 |
| 20260507161532 | 12 | 300 | 4.8 | 12.9 | 0.00 | 0.00 | 0.00 | 66 | 1005.0 |
| 20260507161029 | 11 | 311 | 12.9 | 16.1 | 0.00 | 0.00 | 0.00 | 66 | 1004.8 |
| 20260507160525 | 12 | 309 | 8.0 | 11.3 | 0.00 | 0.00 | 0.00 | 65 | 1005.2 |
| 20260507160022 | 12 | 275 | 12.9 | 16.1 | 0.00 | 0.00 | 0.00 | 66 | 1005.3 |
| 20260507155517 | 12 | 324 | 9.7 | 12.9 | 0.00 | 0.00 | 0.00 | 65 | 1005.1 |
| 20260507155015 | 13 | 208 | 3.2 | 9.7 | 0.00 | 0.00 | 0.00 | 62 | 1005.3 |
| 20260507154511 | 11 | 264 | 8.0 | 16.1 | 0.00 | 0.00 | 0.00 | 66 | 1005.4 |
| 20260507154009 | 11 | 254 | 4.8 | 12.9 | 0.00 | 0.00 | 0.00 | 68 | 1005.4 |
| 20260507153505 | 11 | 263 | 6.4 | 11.3 | 0.00 | 0.00 | 0.00 | 67 | 1005.6 |
| 20260507153001 | 11 | 309 | 6.4 | 11.3 | 0.00 | 0.00 | 0.00 | 69 | 1005.6 |
| 20260507152457 | 11 | 283 | 11.3 | 14.5 | 0.00 | 0.00 | 0.00 | 68 | 1005.8 |
| 20260507151954 | 11 | 319 | 11.3 | 12.9 | 0.00 | 0.00 | 0.00 | 68 | 1005.7 |
| 20260507151450 | 12 | 282 | 11.3 | 17.7 | 0.00 | 0.00 | 0.00 | 67 | 1005.6 |
| 20260507150947 | 12 | 315 | 9.7 | 12.9 | 0.00 | 0.00 | 0.00 | 68 | 1005.6 |
| 20260507150444 | 11 | 348 | 14.5 | 22.5 | 0.00 | 0.00 | 0.00 | 67 | 1005.5 |
| 20260507145940 | 11 | 204 | 8.0 | 14.5 | 0.00 | 0.00 | 0.00 | 68 | 1005.8 |
| 20260507145436 | 11 | 266 | 14.5 | 16.1 | 0.00 | 0.00 | 0.00 | 68 | 1005.6 |
| 20260507144933 | 12 | 318 | 14.5 | 24.1 | 0.00 | 0.00 | 0.00 | 69 | 1005.6 |
| 20260507144430 | 12 | 253 | 11.3 | 17.7 | 0.00 | 0.00 | 0.00 | 69 | 1005.4 |
| 20260507143927 | 12 | 312 | 12.9 | 17.7 | 0.00 | 0.00 | 0.00 | 66 | 1005.6 |
| 20260507143425 | 12 | 258 | 8.0 | 9.7 | 0.00 | 0.00 | 0.00 | 67 | 1005.3 |
| 20260507142921 | 12 | 284 | 8.0 | 20.9 | 0.00 | 0.00 | 0.00 | 66 | 1005.4 |
| 20260507142416 | 12 | 235 | 11.3 | 14.5 | 0.00 | 0.00 | 0.00 | 68 | 1005.2 |
| 20260507141914 | 12 | 231 | 8.0 | 20.9 | 0.00 | 0.00 | 0.00 | 66 | 1005.4 |
| 20260507141410 | 11 | 286 | 11.3 | 16.1 | 0.00 | 0.00 | 0.00 | 67 | 1005.5 |
| 20260507140907 | 12 | 307 | 11.3 | 17.7 | 0.00 | 0.00 | 0.00 | 65 | 1005.4 |
| 20260507140403 | 11 | 258 | 8.0 | 12.9 | 0.00 | 0.00 | 0.00 | 65 | 1005.5 |
| 20260507135901 | 11 | 244 | 8.0 | 17.7 | 0.00 | 0.00 | 0.00 | 64 | 1005.6 |
| 20260507135358 | 11 | 325 | 9.7 | 17.7 | 0.00 | 0.00 | 0.00 | 68 | 1005.6 |
| 20260507134855 | 11 | 242 | 4.8 | 14.5 | 0.00 | 0.00 | 0.00 | 69 | 1005.4 |
| 20260507134351 | 11 | 297 | 12.9 | 14.5 | 0.00 | 0.00 | 0.00 | 66 | 1005.6 |
| 20260507133847 | 11 | 268 | 3.2 | 11.3 | 0.00 | 0.00 | 0.00 | 68 | 1005.6 |
| 20260507133343 | 11 | 258 | 4.8 | 12.9 | 0.00 | 0.00 | 0.00 | 68 | 1005.8 |
| 20260507132842 | 11 | 32 | 4.8 | 8.0 | 0.00 | 0.00 | 0.00 | 70 | 1005.7 |
| 20260507132338 | 11 | 313 | 9.7 | 12.9 | 0.00 | 0.00 | 0.00 | 69 | 1005.8 |
| 20260507131835 | 11 | 245 | 9.7 | 12.9 | 0.00 | 0.00 | 0.00 | 69 | 1005.9 |
| 20260507131332 | 11 | 299 | 9.7 | 12.9 | 0.00 | 0.00 | 0.00 | 69 | 1005.9 |
| 20260507130829 | 11 | 266 | 3.2 | 9.7 | 0.00 | 0.00 | 0.00 | 70 | 1005.9 |
| 20260507130326 | 10 | 311 | 9.7 | 12.9 | 0.00 | 0.00 | 0.00 | 68 | 1005.9 |
| 20260507125825 | 10 | 277 | 6.4 | 12.9 | 0.00 | 0.00 | 0.00 | 73 | 1005.7 |
| 20260507125322 | 10 | 255 | 8.0 | 11.3 | 0.00 | 0.00 | 0.00 | 71 | 1006.0 |
| 20260507124819 | 10 | 300 | 9.7 | 14.5 | 0.00 | 0.00 | 0.00 | 69 | 1005.9 |
| 20260507124315 | 10 | 281 | 6.4 | 11.3 | 0.00 | 0.00 | 0.00 | 70 | 1005.8 |
| 20260507123814 | 10 | 280 | 3.2 | 9.7 | 0.00 | 0.00 | 0.00 | 71 | 1005.9 |
| 20260507123311 | 10 | 249 | 4.8 | 8.0 | 0.00 | 0.00 | 0.00 | 73 | 1005.9 |
| 20260507122807 | 10 | 219 | 6.4 | 9.7 | 0.00 | 0.00 | 0.00 | 73 | 1006.0 |
| 20260507122306 | 10 | 238 | 4.8 | 4.8 | 0.00 | 0.00 | 0.00 | 76 | 1006.0 |
| 20260507121758 | 9 | 257 | 4.8 | 14.5 | 0.00 | 0.00 | 0.00 | 76 | 1005.7 |
| 20260507121254 | 9 | 295 | 4.8 | 8.0 | 0.00 | 0.00 | 0.00 | 77 | 1006.0 |
| 20260507120750 | 9 | 274 | 9.7 | 11.3 | 0.00 | 0.00 | 0.00 | 78 | 1006.0 |
| 20260507120248 | 8 | 311 | 4.8 | 12.9 | 0.00 | 0.00 | 0.00 | 80 | 1006.0 |
| 20260507115743 | 8 | 30 | 8.0 | 9.7 | 0.00 | 0.00 | 0.00 | 80 | 1005.9 |
| 20260507115239 | 8 | 278 | 9.7 | 14.5 | 0.00 | 0.00 | 0.00 | 80 | 1005.9 |
| 20260507114735 | 8 | 358 | 8.0 | 17.7 | 0.00 | 0.00 | 0.00 | 82 | 1006.0 |
| 20260507114233 | 8 | 356 | 11.3 | 14.5 | 0.00 | 0.00 | 0.00 | 82 | 1006.0 |
| 20260507113730 | 8 | 273 | 4.8 | 12.9 | 0.00 | 0.00 | 0.00 | 87 | 1006.0 |
| 20260507113227 | 7 | 260 | 4.8 | 8.0 | 0.00 | 0.00 | 0.00 | 88 | 1006.0 |
| 20260507112724 | 7 | 274 | 8.0 | 9.7 | 0.00 | 0.00 | 0.00 | 88 | 1005.8 |
| 20260507112221 | 7 | 262 | 4.8 | 8.0 | 0.00 | 0.00 | 0.00 | 89 | 1005.8 |
| 20260507111719 | 7 | 275 | 4.8 | 4.8 | 0.00 | 0.00 | 0.00 | 90 | 1005.9 |
| 20260507111216 | 7 | 263 | 3.2 | 8.0 | 0.00 | 0.00 | 0.00 | 91 | 1005.7 |
| 20260507110711 | 6 | 242 | 4.8 | 4.8 | 0.00 | 0.00 | 0.00 | 92 | 1005.6 |
| 20260507110208 | 6 | 222 | 4.8 | 4.8 | 0.00 | 0.00 | 0.00 | 92 | 1005.6 |
| 20260507105705 | 6 | 240 | 3.2 | 4.8 | 0.00 | 0.00 | 0.00 | 92 | 1005.7 |
| 20260507105201 | 6 | 244 | 3.2 | 3.2 | 0.00 | 0.00 | 0.00 | 92 | 1005.8 |
| 20260507104659 | 7 | 256 | 4.8 | 8.0 | 0.00 | 0.00 | 0.00 | 92 | 1005.7 |
| 20260507104155 | 7 | 292 | 3.2 | 8.0 | 0.00 | 0.00 | 0.00 | 92 | 1006.0 |
| 20260507103651 | 7 | 247 | 3.2 | 4.8 | 0.00 | 0.00 | 0.00 | 92 | 1006.0 |
| 20260507103148 | 6 | 248 | 4.8 | 4.8 | 0.00 | 0.00 | 0.00 | 93 | 1005.5 |
| 20260507102644 | 6 | 295 | 3.2 | 8.0 | 0.00 | 0.00 | 0.00 | 92 | 1005.4 |
| 20260507102140 | 7 | 279 | 4.8 | 4.8 | 0.00 | 0.00 | 0.00 | 92 | 1005.8 |
| 20260507101636 | 7 | 236 | 3.2 | 9.7 | 0.00 | 0.00 | 0.00 | 93 | 1006.0 |
| 20260507101132 | 7 | 327 | 6.4 | 9.7 | 0.00 | 0.00 | 0.00 | 93 | 1005.7 |
| 20260507100630 | 6 | 264 | 6.4 | 9.7 | 0.00 | 0.00 | 0.00 | 93 | 1005.7 |
| 20260507100128 | 7 | 250 | 8.0 | 9.7 | 0.00 | 0.00 | 0.00 | 93 | 1005.9 |
| 20260507095626 | 6 | 331 | 8.0 | 11.3 | 0.00 | 0.00 | 0.00 | 94 | 1006.1 |
| 20260507095122 | 7 | 324 | 6.4 | 8.0 | 0.00 | 0.00 | 0.00 | 94 | 1005.8 |
| 20260507094618 | 7 | 319 | 4.8 | 4.8 | 0.00 | 0.00 | 0.00 | 94 | 1005.8 |
| 20260507094115 | 7 | 252 | 4.8 | 9.7 | 0.00 | 0.00 | 0.00 | 94 | 1006.0 |
| 20260507093613 | 7 | 304 | 4.8 | 9.7 | 0.00 | 0.00 | 0.00 | 94 | 1005.7 |
| 20260507093111 | 7 | 299 | 6.4 | 11.3 | 0.00 | 0.00 | 0.00 | 94 | 1005.8 |
| 20260507092607 | 7 | 299 | 4.8 | 8.0 | 0.00 | 0.00 | 0.00 | 95 | 1005.5 |
| 20260507092104 | 7 | 319 | 4.8 | 8.0 | 0.00 | 0.00 | 0.00 | 95 | 1005.7 |
| 20260507091601 | 7 | 261 | 3.2 | 8.0 | 0.00 | 0.00 | 0.00 | 95 | 1005.6 |
| 20260507091057 | 7 | 296 | 8.0 | 11.3 | 0.00 | 0.00 | 0.00 | 95 | 1005.4 |
| 20260507090553 | 7 | 204 | 4.8 | 8.0 | 0.00 | 0.00 | 0.00 | 95 | 1005.6 |
| 20260507090050 | 7 | 228 | 4.8 | 8.0 | 0.00 | 0.00 | 0.00 | 95 | 1005.1 |
| 20260507085547 | 7 | 267 | 4.8 | 4.8 | 0.00 | 0.00 | 0.00 | 95 | 1005.1 |
| 20260507085044 | 7 | 248 | 6.4 | 9.7 | 0.00 | 0.00 | 0.00 | 95 | 1005.2 |
| 20260507084540 | 7 | 288 | 8.0 | 12.9 | 0.00 | 0.00 | 0.00 | 95 | 1005.1 |
| 20260507084037 | 7 | 324 | 6.4 | 11.3 | 0.00 | 0.00 | 0.00 | 95 | 1005.0 |
| 20260507083533 | 7 | 323 | 8.0 | 11.3 | 0.00 | 0.00 | 0.00 | 95 | 1005.4 |
| 20260507083031 | 7 | 200 | 9.7 | 16.1 | 0.00 | 0.00 | 0.00 | 95 | 1005.1 |
| 20260507082526 | 7 | 235 | 4.8 | 11.3 | 0.00 | 0.00 | 0.00 | 95 | 1005.0 |
| 20260507082023 | 7 | 279 | 6.4 | 11.3 | 0.00 | 0.00 | 0.00 | 95 | 1005.1 |
| 20260507081519 | 7 | 234 | 4.8 | 8.0 | 0.00 | 0.00 | 0.00 | 95 | 1005.3 |
| 20260507081017 | 7 | 318 | 6.4 | 8.0 | 0.00 | 0.00 | 0.00 | 95 | 1005.4 |
| 20260507080512 | 7 | 289 | 6.4 | 9.7 | 0.00 | 0.00 | 0.00 | 95 | 1005.3 |
| 20260507080009 | 7 | 235 | 3.2 | 9.7 | 0.00 | 0.00 | 0.00 | 95 | 1005.2 |
| 20260507075504 | 7 | 276 | 11.3 | 11.3 | 0.00 | 0.00 | 0.00 | 95 | 1004.8 |
| 20260507075001 | 7 | 321 | 4.8 | 11.3 | 0.00 | 0.00 | 0.00 | 94 | 1004.5 |
| 20260507074458 | 7 | 283 | 6.4 | 11.3 | 0.00 | 0.00 | 0.00 | 94 | 1004.5 |
| 20260507073956 | 7 | 279 | 8.0 | 9.7 | 0.00 | 0.00 | 0.00 | 94 | 1004.5 |
| 20260507073452 | 7 | 245 | 3.2 | 4.8 | 0.00 | 0.00 | 0.00 | 94 | 1005.0 |
| 20260507072948 | 7 | 230 | 4.8 | 12.9 | 0.00 | 0.00 | 0.00 | 94 | 1004.6 |
| 20260507072446 | 7 | 321 | 9.7 | 12.9 | 0.00 | 0.00 | 0.00 | 94 | 1004.6 |
| 20260507071943 | 7 | 269 | 4.8 | 8.0 | 0.00 | 0.00 | 0.00 | 94 | 1004.5 |
| 20260507071440 | 7 | 276 | 4.8 | 12.9 | 0.00 | 0.00 | 0.00 | 94 | 1004.5 |
| 20260507070937 | 7 | 253 | 8.0 | 9.7 | 0.00 | 0.00 | 0.00 | 94 | 1004.5 |
| 20260507070434 | 7 | 279 | 4.8 | 8.0 | 0.00 | 0.00 | 0.00 | 95 | 1004.6 |
| 20260507065931 | 7 | 168 | 6.4 | 9.7 | 0.00 | 0.00 | 0.00 | 95 | 1004.5 |
| 20260507065428 | 8 | 32 | 6.4 | 11.3 | 0.00 | 0.00 | 0.00 | 96 | 1004.6 |
| 20260507064925 | 8 | 21 | 6.4 | 8.0 | 0.00 | 0.00 | 0.00 | 97 | 1004.4 |
| 20260507064423 | 8 | 238 | 1.6 | 4.8 | 0.00 | 0.00 | 0.00 | 97 | 1004.4 |
| 20260507063921 | 8 | 258 | 3.2 | 8.0 | 0.00 | 0.00 | 0.00 | 97 | 1004.4 |
| 20260507063417 | 8 | 238 | 1.6 | 9.7 | 0.00 | 0.00 | 0.00 | 97 | 1004.6 |
| 20260507062914 | 8 | 256 | 3.2 | 8.0 | 0.00 | 0.00 | 0.00 | 97 | 1004.3 |
| 20260507062411 | 8 | 268 | 0.0 | 3.2 | 0.00 | 0.00 | 0.00 | 97 | 1004.4 |
| 20260507061909 | 8 | 246 | 0.0 | 0.0 | 0.00 | 0.00 | 0.00 | 97 | 1004.5 |
| 20260507061407 | 8 | 240 | 0.0 | 1.6 | 0.00 | 0.00 | 0.00 | 97 | 1004.4 |
| 20260507060905 | 8 | 258 | 1.6 | 4.8 | 0.00 | 0.00 | 0.00 | 96 | 1004.7 |
| 20260507060401 | 8 | 351 | 4.8 | 8.0 | 0.00 | 0.00 | 0.00 | 96 | 1004.3 |
| 20260507055852 | 8 | 261 | 4.8 | 9.7 | 0.00 | 0.00 | 0.00 | 96 | 1004.5 |
| 20260507055347 | 8 | 254 | 4.8 | 8.0 | 0.00 | 0.00 | 0.00 | 96 | 1004.3 |
| 20260507054845 | 8 | 303 | 3.2 | 3.2 | 0.00 | 0.00 | 0.00 | 96 | 1004.3 |
| 20260507054340 | 8 | 283 | 1.6 | 3.2 | 0.00 | 0.00 | 0.00 | 96 | 1004.2 |
| 20260507053838 | 8 | 340 | 4.8 | 9.7 | 0.00 | 0.00 | 0.00 | 97 | 1004.0 |
| 20260507053336 | 8 | 290 | 3.2 | 3.2 | 0.00 | 0.00 | 0.00 | 97 | 1004.2 |
| 20260507052834 | 8 | 308 | 4.8 | 4.8 | 0.00 | 0.00 | 0.00 | 97 | 1004.0 |
| 20260507052331 | 8 | 240 | 3.2 | 9.7 | 0.00 | 0.00 | 0.00 | 97 | 1004.0 |
| 20260507051828 | 8 | 278 | 6.4 | 9.7 | 0.00 | 0.00 | 0.00 | 97 | 1004.3 |
| 20260507051326 | 8 | 240 | 3.2 | 11.3 | 0.00 | 0.00 | 0.00 | 97 | 1004.1 |
| 20260507050822 | 8 | 255 | 6.4 | 11.3 | 0.00 | 0.00 | 0.00 | 97 | 1004.0 |
| 20260507050319 | 8 | 245 | 8.0 | 12.9 | 0.00 | 0.00 | 0.00 | 97 | 1003.6 |
| 20260507045816 | 8 | 288 | 6.4 | 11.3 | 0.00 | 0.00 | 0.00 | 97 | 1003.7 |
| 20260507045312 | 8 | 337 | 8.0 | 16.1 | 0.00 | 0.00 | 0.00 | 98 | 1003.9 |
| 20260507044809 | 9 | 326 | 8.0 | 11.3 | 0.00 | 0.00 | 0.00 | 98 | 1004.2 |
| 20260507044306 | 9 | 245 | 6.4 | 11.3 | 0.00 | 0.00 | 0.00 | 98 | 1004.1 |
| 20260507043802 | 9 | 306 | 4.8 | 9.7 | 0.00 | 0.00 | 0.00 | 98 | 1003.9 |
| 20260507043259 | 9 | 202 | 8.0 | 11.3 | 0.00 | 0.00 | 0.00 | 98 | 1004.3 |
| 20260507042755 | 9 | 244 | 8.0 | 16.1 | 0.00 | 0.00 | 0.00 | 98 | 1004.3 |
| 20260507042250 | 9 | 273 | 11.3 | 12.9 | 0.00 | 0.00 | 0.00 | 99 | 1003.9 |
| 20260507041748 | 9 | 257 | 9.7 | 14.5 | 0.00 | 0.00 | 0.00 | 99 | 1003.9 |
| 20260507041244 | 9 | 326 | 6.4 | 12.9 | 0.00 | 0.00 | 0.00 | 99 | 1003.8 |
| 20260507040741 | 10 | 216 | 4.8 | 9.7 | 0.00 | 0.00 | 0.00 | 99 | 1003.7 |
| 20260507040237 | 10 | 350 | 8.0 | 12.9 | 0.00 | 0.00 | 0.00 | 99 | 1003.7 |
| 20260507035734 | 10 | 285 | 9.7 | 16.1 | 0.00 | 0.64 | 0.64 | 99 | 1003.7 |
| 20260507035229 | 10 | 308 | 11.3 | 12.9 | 0.18 | 0.64 | 0.64 | 99 | 1004.0 |
| 20260507034727 | 10 | 343 | 6.4 | 9.7 | 0.18 | 0.64 | 0.64 | 99 | 1003.7 |
| 20260507034223 | 10 | 265 | 9.7 | 12.9 | 0.13 | 0.61 | 0.61 | 99 | 1003.8 |
| 20260507033722 | 10 | 242 | 8.0 | 12.9 | 0.13 | 0.61 | 0.61 | 99 | 1004.0 |
| 20260507033219 | 10 | 300 | 8.0 | 16.1 | 0.18 | 0.58 | 0.58 | 99 | 1003.9 |
| 20260507032717 | 11 | 260 | 11.3 | 16.1 | 0.18 | 0.58 | 0.58 | 98 | 1003.9 |
| 20260507032212 | 11 | 327 | 16.1 | 22.5 | 0.00 | 0.56 | 0.56 | 99 | 1003.7 |
| 20260507031709 | 11 | 324 | 8.0 | 12.9 | 0.00 | 0.56 | 0.56 | 99 | 1004.0 |
| 20260507031206 | 11 | 269 | 11.3 | 16.1 | 0.00 | 0.56 | 0.56 | 99 | 1003.9 |
| 20260507030703 | 11 | 326 | 12.9 | 17.7 | 0.00 | 0.56 | 0.56 | 99 | 1003.8 |
| 20260507030200 | 11 | 242 | 12.9 | 17.7 | 0.00 | 0.56 | 0.56 | 99 | 1003.7 |
| 20260507025657 | 11 | 169 | 9.7 | 11.3 | 0.00 | 0.56 | 0.56 | 99 | 1003.7 |
| 20260507025154 | 12 | 122 | 8.0 | 12.9 | 0.00 | 0.56 | 0.56 | 99 | 1003.4 |
| 20260507024652 | 12 | 288 | 8.0 | 11.3 | 0.00 | 0.56 | 0.56 | 99 | 1003.5 |
| 20260507024149 | 12 | 306 | 9.7 | 12.9 | 0.00 | 0.56 | 0.56 | 99 | 1003.3 |
| 20260507023644 | 12 | 50 | 11.3 | 12.9 | 0.00 | 0.56 | 0.56 | 99 | 1003.3 |
| 20260507023142 | 12 | 320 | 8.0 | 11.3 | 0.13 | 0.56 | 0.56 | 99 | 1003.6 |
| 20260507022639 | 12 | 82 | 11.3 | 14.5 | 0.13 | 0.56 | 0.56 | 99 | 1003.7 |
| 20260507022135 | 12 | 297 | 6.4 | 12.9 | 0.00 | 0.53 | 0.53 | 99 | 1003.4 |
| 20260507021631 | 12 | 268 | 11.3 | 14.5 | 0.18 | 0.53 | 0.53 | 99 | 1003.3 |
| 20260507021127 | 13 | 179 | 11.3 | 12.9 | 0.00 | 0.51 | 0.51 | 99 | 1003.3 |
| 20260507020625 | 13 | 355 | 8.0 | 11.3 | 0.00 | 0.51 | 0.51 | 99 | 1003.6 |
| 20260507020121 | 14 | 257 | 3.2 | 8.0 | 0.00 | 0.51 | 0.51 | 99 | 1003.0 |
| 20260507015620 | 14 | 252 | 3.2 | 4.8 | 0.00 | 0.51 | 0.51 | 99 | 1003.4 |
| 20260507015117 | 14 | 183 | 8.0 | 14.5 | 0.00 | 0.51 | 0.51 | 99 | 1003.3 |
| 20260507014613 | 14 | 165 | 6.4 | 12.9 | 0.00 | 0.51 | 0.51 | 99 | 1003.2 |
| 20260507014109 | 14 | 193 | 4.8 | 12.9 | 0.00 | 0.51 | 0.51 | 99 | 1003.2 |
| 20260507013606 | 14 | 224 | 3.2 | 8.0 | 0.00 | 0.51 | 0.51 | 99 | 1003.2 |
| 20260507013103 | 14 | 164 | 8.0 | 11.3 | 0.00 | 0.51 | 0.51 | 99 | 1003.3 |
| 20260507012600 | 14 | 209 | 3.2 | 9.7 | 0.00 | 0.51 | 0.51 | 99 | 1003.3 |
| 20260507012056 | 14 | 166 | 3.2 | 12.9 | 0.00 | 0.51 | 0.51 | 99 | 1003.3 |
| 20260507011554 | 14 | 158 | 6.4 | 9.7 | 0.00 | 0.51 | 0.51 | 99 | 1003.3 |
| 20260507011050 | 14 | 221 | 1.6 | 11.3 | 0.00 | 0.51 | 0.51 | 99 | 1003.2 |
| 20260507010545 | 14 | 239 | 1.6 | 8.0 | 0.00 | 0.51 | 0.51 | 99 | 1003.3 |
| 20260507010041 | 14 | 174 | 6.4 | 12.9 | 0.00 | 0.51 | 0.51 | 99 | 1003.3 |
| 20260507005539 | 14 | 188 | 6.4 | 17.7 | 0.00 | 0.51 | 0.51 | 99 | 1003.2 |
| 20260507005035 | 14 | 206 | 8.0 | 12.9 | 0.00 | 0.51 | 0.51 | 99 | 1003.2 |
| 20260507004532 | 14 | 163 | 11.3 | 12.9 | 0.00 | 0.51 | 0.51 | 99 | 1003.1 |
| 20260507004029 | 14 | 190 | 14.5 | 16.1 | 0.00 | 0.51 | 0.51 | 99 | 1003.4 |
| 20260507003525 | 14 | 173 | 17.7 | 20.9 | 0.00 | 0.51 | 0.51 | 99 | 1003.5 |
| 20260507003020 | 14 | 200 | 11.3 | 20.9 | 0.00 | 0.51 | 0.51 | 99 | 1003.2 |
| 20260507002517 | 14 | 159 | 8.0 | 11.3 | 0.00 | 0.51 | 0.51 | 99 | 1003.2 |
| 20260507002013 | 14 | 212 | 8.0 | 16.1 | 0.00 | 0.51 | 0.51 | 99 | 1003.1 |
| 20260507001509 | 14 | 166 | 8.0 | 16.1 | 0.00 | 0.51 | 0.51 | 99 | 1003.0 |
| 20260507001007 | 14 | 164 | 6.4 | 12.9 | 0.00 | 0.51 | 0.51 | 99 | 1002.9 |
| 20260507000503 | 14 | 180 | 11.3 | 14.5 | 0.00 | 0.51 | 0.51 | 99 | 1003.1 |
| 20260506235958 | 14 | 182 | 11.3 | 24.1 | 0.00 | 0.51 | 0.51 | 99 | 1003.0 |
| 20260506235456 | 14 | 188 | 11.3 | 17.7 | 0.00 | 0.51 | 0.51 | 99 | 1002.8 |
| 20260506234952 | 14 | 180 | 14.5 | 17.7 | 0.00 | 0.51 | 0.51 | 99 | 1003.0 |
| 20260506234449 | 14 | 222 | 8.0 | 14.5 | 0.00 | 0.51 | 0.51 | 99 | 1003.0 |
| 20260506233947 | 14 | 168 | 6.4 | 20.9 | 0.00 | 0.51 | 0.51 | 99 | 1003.0 |
| 20260506233443 | 14 | 181 | 19.3 | 24.1 | 0.00 | 0.51 | 0.51 | 99 | 1003.0 |
| 20260506232940 | 14 | 169 | 14.5 | 22.5 | 0.00 | 0.51 | 0.51 | 99 | 1003.2 |
| 20260506232436 | 14 | 184 | 16.1 | 22.5 | 0.00 | 0.51 | 0.51 | 99 | 1003.1 |
| 20260506231931 | 14 | 192 | 14.5 | 27.4 | 0.00 | 0.51 | 0.51 | 99 | 1003.1 |
| 20260506231429 | 14 | 193 | 11.3 | 17.7 | 0.00 | 0.51 | 0.51 | 99 | 1003.0 |
| 20260506230926 | 14 | 183 | 12.9 | 20.9 | 0.00 | 0.51 | 0.51 | 99 | 1003.1 |
| 20260506230423 | 14 | 198 | 12.9 | 17.7 | 0.00 | 0.51 | 0.51 | 99 | 1003.1 |
| 20260506225920 | 14 | 178 | 12.9 | 17.7 | 0.00 | 0.51 | 0.51 | 99 | 1003.0 |
| 20260506225417 | 14 | 178 | 8.0 | 25.7 | 0.00 | 0.51 | 0.51 | 99 | 1003.2 |
| 20260506224914 | 14 | 169 | 14.5 | 24.1 | 0.00 | 0.51 | 0.51 | 99 | 1003.3 |
| 20260506224411 | 14 | 171 | 11.3 | 27.4 | 0.00 | 0.51 | 0.51 | 99 | 1003.1 |
| 20260506223907 | 15 | 168 | 17.7 | 24.1 | 0.00 | 0.51 | 0.51 | 99 | 1003.1 |
| 20260506223403 | 15 | 193 | 8.0 | 14.5 | 0.00 | 0.51 | 0.51 | 99 | 1003.3 |
| 20260506222900 | 15 | 185 | 9.7 | 20.9 | 0.00 | 0.51 | 0.51 | 99 | 1003.1 |
| 20260506222356 | 15 | 161 | 16.1 | 24.1 | 0.00 | 0.51 | 0.51 | 99 | 1003.3 |
| 20260506221853 | 15 | 182 | 12.9 | 17.7 | 0.00 | 0.51 | 0.51 | 99 | 1003.3 |